sensor_id;sensor_type;location;lat;lon;timestamp;P1;durP1;ratioP1;P2;durP2;ratioP2
80567;SDS011;69922;45.656;25.586;2023-07-13T00:00:08;9.20;;;6.40;;
80567;SDS011;69922;45.656;25.586;2023-07-13T00:01:33;9.30;;;6.60;;
80567;SDS011;69922;45.656;25.586;2023-07-13T00:02:40;10.10;;;6.00;;
80567;SDS011;69922;45.656;25.586;2023-07-13T00:03:46;9.20;;;6.90;;
80567;SDS011;69922;45.656;25.586;2023-07-13T00:04:53;12.10;;;6.70;;
80567;SDS011;69922;45.656;25.586;2023-07-13T00:05:59;7.60;;;6.10;;
80567;SDS011;69922;45.656;25.586;2023-07-13T00:07:07;10.60;;;7.20;;
80567;SDS011;69922;45.656;25.586;2023-07-13T00:08:14;10.90;;;6.80;;
80567;SDS011;69922;45.656;25.586;2023-07-13T00:09:19;8.90;;;6.90;;
80567;SDS011;69922;45.656;25.586;2023-07-13T00:10:27;8.30;;;6.10;;
80567;SDS011;69922;45.656;25.586;2023-07-13T00:11:33;9.00;;;6.30;;
80567;SDS011;69922;45.656;25.586;2023-07-13T00:12:40;8.40;;;7.30;;
80567;SDS011;69922;45.656;25.586;2023-07-13T00:13:47;8.20;;;6.70;;
80567;SDS011;69922;45.656;25.586;2023-07-13T00:14:52;8.10;;;6.50;;
80567;SDS011;69922;45.656;25.586;2023-07-13T00:15:59;7.70;;;6.90;;
80567;SDS011;69922;45.656;25.586;2023-07-13T00:17:05;10.00;;;7.10;;
80567;SDS011;69922;45.656;25.586;2023-07-13T00:18:12;10.70;;;6.80;;
80567;SDS011;69922;45.656;25.586;2023-07-13T00:19:18;7.10;;;6.20;;
80567;SDS011;69922;45.656;25.586;2023-07-13T00:20:26;8.80;;;6.50;;
80567;SDS011;69922;45.656;25.586;2023-07-13T00:21:32;8.70;;;6.10;;
80567;SDS011;69922;45.656;25.586;2023-07-13T00:22:39;9.50;;;6.50;;
80567;SDS011;69922;45.656;25.586;2023-07-13T00:23:45;8.80;;;6.70;;
80567;SDS011;69922;45.656;25.586;2023-07-13T00:24:53;7.80;;;6.70;;
80567;SDS011;69922;45.656;25.586;2023-07-13T00:26:01;11.30;;;8.10;;
80567;SDS011;69922;45.656;25.586;2023-07-13T00:27:09;8.00;;;7.20;;
80567;SDS011;69922;45.656;25.586;2023-07-13T00:28:15;9.20;;;6.80;;
80567;SDS011;69922;45.656;25.586;2023-07-13T00:29:21;10.50;;;7.70;;
80567;SDS011;69922;45.656;25.586;2023-07-13T00:30:27;9.90;;;7.20;;
80567;SDS011;69922;45.656;25.586;2023-07-13T00:31:35;7.90;;;6.60;;
80567;SDS011;69922;45.656;25.586;2023-07-13T00:32:41;9.10;;;6.40;;
80567;SDS011;69922;45.656;25.586;2023-07-13T00:33:48;8.60;;;6.70;;
80567;SDS011;69922;45.656;25.586;2023-07-13T00:34:53;8.70;;;5.70;;
80567;SDS011;69922;45.656;25.586;2023-07-13T00:36:01;9.40;;;6.80;;
80567;SDS011;69922;45.656;25.586;2023-07-13T00:37:08;9.20;;;6.00;;
80567;SDS011;69922;45.656;25.586;2023-07-13T00:38:15;9.00;;;6.10;;
80567;SDS011;69922;45.656;25.586;2023-07-13T00:39:21;9.40;;;6.00;;
80567;SDS011;69922;45.656;25.586;2023-07-13T00:40:29;10.20;;;6.90;;
80567;SDS011;69922;45.656;25.586;2023-07-13T00:41:35;9.40;;;6.50;;
80567;SDS011;69922;45.656;25.586;2023-07-13T00:42:41;7.70;;;6.00;;
80567;SDS011;69922;45.656;25.586;2023-07-13T00:43:47;7.90;;;6.60;;
80567;SDS011;69922;45.656;25.586;2023-07-13T00:45:03;9.40;;;6.60;;
80567;SDS011;69922;45.656;25.586;2023-07-13T00:46:19;7.90;;;6.10;;
80567;SDS011;69922;45.656;25.586;2023-07-13T00:47:27;9.80;;;6.60;;
80567;SDS011;69922;45.656;25.586;2023-07-13T00:48:34;7.60;;;5.90;;
80567;SDS011;69922;45.656;25.586;2023-07-13T00:49:42;8.50;;;6.50;;
80567;SDS011;69922;45.656;25.586;2023-07-13T00:50:50;9.30;;;7.00;;
80567;SDS011;69922;45.656;25.586;2023-07-13T00:52:00;8.80;;;7.00;;
80567;SDS011;69922;45.656;25.586;2023-07-13T00:53:10;8.60;;;6.70;;
80567;SDS011;69922;45.656;25.586;2023-07-13T00:54:19;8.70;;;6.70;;
80567;SDS011;69922;45.656;25.586;2023-07-13T00:55:28;7.90;;;6.80;;
80567;SDS011;69922;45.656;25.586;2023-07-13T00:56:35;9.80;;;7.10;;
80567;SDS011;69922;45.656;25.586;2023-07-13T00:57:45;10.90;;;6.90;;
80567;SDS011;69922;45.656;25.586;2023-07-13T00:58:52;8.70;;;7.50;;
80567;SDS011;69922;45.656;25.586;2023-07-13T01:00:00;10.20;;;7.90;;
80567;SDS011;69922;45.656;25.586;2023-07-13T01:01:13;9.60;;;7.50;;
80567;SDS011;69922;45.656;25.586;2023-07-13T01:02:18;10.10;;;7.70;;
80567;SDS011;69922;45.656;25.586;2023-07-13T01:03:26;9.40;;;6.80;;
80567;SDS011;69922;45.656;25.586;2023-07-13T01:04:33;9.90;;;7.40;;
80567;SDS011;69922;45.656;25.586;2023-07-13T01:05:39;9.50;;;6.20;;
80567;SDS011;69922;45.656;25.586;2023-07-13T01:06:45;10.90;;;7.20;;
80567;SDS011;69922;45.656;25.586;2023-07-13T01:07:52;9.10;;;7.00;;
80567;SDS011;69922;45.656;25.586;2023-07-13T01:09:00;7.60;;;6.80;;
80567;SDS011;69922;45.656;25.586;2023-07-13T01:10:08;8.10;;;5.80;;
80567;SDS011;69922;45.656;25.586;2023-07-13T01:11:14;9.00;;;6.10;;
80567;SDS011;69922;45.656;25.586;2023-07-13T01:12:26;7.40;;;6.00;;
80567;SDS011;69922;45.656;25.586;2023-07-13T01:13:32;12.00;;;6.80;;
80567;SDS011;69922;45.656;25.586;2023-07-13T01:14:38;7.40;;;6.40;;
80567;SDS011;69922;45.656;25.586;2023-07-13T01:15:45;10.20;;;6.30;;
80567;SDS011;69922;45.656;25.586;2023-07-13T01:16:53;8.40;;;6.80;;
80567;SDS011;69922;45.656;25.586;2023-07-13T01:18:05;10.20;;;6.60;;
80567;SDS011;69922;45.656;25.586;2023-07-13T01:19:20;10.40;;;7.20;;
80567;SDS011;69922;45.656;25.586;2023-07-13T01:20:41;9.00;;;6.70;;
80567;SDS011;69922;45.656;25.586;2023-07-13T01:21:53;9.10;;;6.60;;
80567;SDS011;69922;45.656;25.586;2023-07-13T01:22:59;9.00;;;6.80;;
80567;SDS011;69922;45.656;25.586;2023-07-13T01:24:07;9.80;;;6.40;;
80567;SDS011;69922;45.656;25.586;2023-07-13T01:25:13;10.10;;;6.50;;
80567;SDS011;69922;45.656;25.586;2023-07-13T01:26:19;10.40;;;6.90;;
80567;SDS011;69922;45.656;25.586;2023-07-13T01:27:26;12.70;;;6.90;;
80567;SDS011;69922;45.656;25.586;2023-07-13T01:28:32;11.50;;;5.70;;
80567;SDS011;69922;45.656;25.586;2023-07-13T01:29:42;7.60;;;6.20;;
80567;SDS011;69922;45.656;25.586;2023-07-13T01:30:52;9.10;;;6.60;;
80567;SDS011;69922;45.656;25.586;2023-07-13T01:32:00;8.90;;;6.50;;
80567;SDS011;69922;45.656;25.586;2023-07-13T01:33:07;11.40;;;6.70;;
80567;SDS011;69922;45.656;25.586;2023-07-13T01:34:15;8.60;;;6.50;;
80567;SDS011;69922;45.656;25.586;2023-07-13T01:35:21;11.30;;;6.60;;
80567;SDS011;69922;45.656;25.586;2023-07-13T01:36:29;12.90;;;7.00;;
80567;SDS011;69922;45.656;25.586;2023-07-13T01:37:35;8.90;;;6.40;;
80567;SDS011;69922;45.656;25.586;2023-07-13T01:38:43;9.60;;;7.20;;
80567;SDS011;69922;45.656;25.586;2023-07-13T01:39:50;10.70;;;7.00;;
80567;SDS011;69922;45.656;25.586;2023-07-13T01:40:56;9.80;;;7.20;;
80567;SDS011;69922;45.656;25.586;2023-07-13T01:42:02;9.30;;;6.60;;
80567;SDS011;69922;45.656;25.586;2023-07-13T01:43:08;13.20;;;7.80;;
80567;SDS011;69922;45.656;25.586;2023-07-13T01:44:15;13.60;;;8.00;;
80567;SDS011;69922;45.656;25.586;2023-07-13T01:45:21;14.10;;;7.60;;
80567;SDS011;69922;45.656;25.586;2023-07-13T01:46:27;16.60;;;8.80;;
80567;SDS011;69922;45.656;25.586;2023-07-13T01:47:34;13.90;;;8.30;;
80567;SDS011;69922;45.656;25.586;2023-07-13T01:48:40;12.40;;;8.70;;
80567;SDS011;69922;45.656;25.586;2023-07-13T01:49:46;10.20;;;7.10;;
80567;SDS011;69922;45.656;25.586;2023-07-13T01:50:54;12.60;;;8.30;;
80567;SDS011;69922;45.656;25.586;2023-07-13T01:52:00;10.10;;;7.30;;
80567;SDS011;69922;45.656;25.586;2023-07-13T01:53:06;12.70;;;8.60;;
80567;SDS011;69922;45.656;25.586;2023-07-13T01:54:13;13.90;;;8.80;;
80567;SDS011;69922;45.656;25.586;2023-07-13T01:55:19;16.60;;;9.50;;
80567;SDS011;69922;45.656;25.586;2023-07-13T01:56:26;11.70;;;8.20;;
80567;SDS011;69922;45.656;25.586;2023-07-13T01:57:31;10.50;;;7.70;;
80567;SDS011;69922;45.656;25.586;2023-07-13T01:58:37;8.30;;;6.60;;
80567;SDS011;69922;45.656;25.586;2023-07-13T01:59:43;9.90;;;7.50;;
80567;SDS011;69922;45.656;25.586;2023-07-13T02:00:50;11.80;;;8.10;;
80567;SDS011;69922;45.656;25.586;2023-07-13T02:01:57;16.60;;;7.50;;
80567;SDS011;69922;45.656;25.586;2023-07-13T02:03:04;12.30;;;7.80;;
80567;SDS011;69922;45.656;25.586;2023-07-13T02:04:10;10.20;;;7.20;;
80567;SDS011;69922;45.656;25.586;2023-07-13T02:05:16;12.90;;;7.80;;
80567;SDS011;69922;45.656;25.586;2023-07-13T02:06:23;10.70;;;7.80;;
80567;SDS011;69922;45.656;25.586;2023-07-13T02:07:29;12.40;;;7.60;;
80567;SDS011;69922;45.656;25.586;2023-07-13T02:08:35;10.40;;;7.20;;
80567;SDS011;69922;45.656;25.586;2023-07-13T02:09:41;14.30;;;8.30;;
80567;SDS011;69922;45.656;25.586;2023-07-13T02:10:47;10.90;;;7.80;;
80567;SDS011;69922;45.656;25.586;2023-07-13T02:11:57;10.00;;;6.80;;
80567;SDS011;69922;45.656;25.586;2023-07-13T02:13:03;13.10;;;7.30;;
80567;SDS011;69922;45.656;25.586;2023-07-13T02:14:12;12.00;;;8.40;;
80567;SDS011;69922;45.656;25.586;2023-07-13T02:15:19;14.70;;;8.80;;
80567;SDS011;69922;45.656;25.586;2023-07-13T02:16:26;12.50;;;8.10;;
80567;SDS011;69922;45.656;25.586;2023-07-13T02:17:33;15.20;;;8.30;;
80567;SDS011;69922;45.656;25.586;2023-07-13T02:18:41;13.20;;;8.40;;
80567;SDS011;69922;45.656;25.586;2023-07-13T02:19:47;12.70;;;8.40;;
80567;SDS011;69922;45.656;25.586;2023-07-13T02:20:52;13.60;;;9.90;;
80567;SDS011;69922;45.656;25.586;2023-07-13T02:21:59;13.60;;;9.40;;
80567;SDS011;69922;45.656;25.586;2023-07-13T02:23:05;14.70;;;10.40;;
80567;SDS011;69922;45.656;25.586;2023-07-13T02:24:13;15.30;;;9.00;;
80567;SDS011;69922;45.656;25.586;2023-07-13T02:25:22;15.90;;;10.40;;
80567;SDS011;69922;45.656;25.586;2023-07-13T02:26:29;14.90;;;10.00;;
80567;SDS011;69922;45.656;25.586;2023-07-13T02:27:35;17.20;;;10.30;;
80567;SDS011;69922;45.656;25.586;2023-07-13T02:28:41;16.50;;;10.90;;
80567;SDS011;69922;45.656;25.586;2023-07-13T02:29:47;14.30;;;10.30;;
80567;SDS011;69922;45.656;25.586;2023-07-13T02:32:08;13.20;;;9.50;;
80567;SDS011;69922;45.656;25.586;2023-07-13T02:33:15;16.30;;;10.20;;
80567;SDS011;69922;45.656;25.586;2023-07-13T02:34:21;18.50;;;10.90;;
80567;SDS011;69922;45.656;25.586;2023-07-13T02:35:27;16.80;;;11.10;;
80567;SDS011;69922;45.656;25.586;2023-07-13T02:36:32;15.00;;;10.50;;
80567;SDS011;69922;45.656;25.586;2023-07-13T02:37:39;16.30;;;10.60;;
80567;SDS011;69922;45.656;25.586;2023-07-13T02:38:44;16.10;;;9.40;;
80567;SDS011;69922;45.656;25.586;2023-07-13T02:40:59;13.20;;;9.40;;
80567;SDS011;69922;45.656;25.586;2023-07-13T02:42:06;13.60;;;10.00;;
80567;SDS011;69922;45.656;25.586;2023-07-13T02:43:12;13.40;;;9.10;;
80567;SDS011;69922;45.656;25.586;2023-07-13T02:44:19;16.50;;;9.20;;
80567;SDS011;69922;45.656;25.586;2023-07-13T02:45:25;15.20;;;9.80;;
80567;SDS011;69922;45.656;25.586;2023-07-13T02:46:32;19.00;;;10.20;;
80567;SDS011;69922;45.656;25.586;2023-07-13T02:47:40;16.90;;;10.30;;
80567;SDS011;69922;45.656;25.586;2023-07-13T02:48:48;13.50;;;9.40;;
80567;SDS011;69922;45.656;25.586;2023-07-13T02:49:55;15.80;;;10.40;;
80567;SDS011;69922;45.656;25.586;2023-07-13T02:51:01;13.90;;;9.80;;
80567;SDS011;69922;45.656;25.586;2023-07-13T02:52:07;12.90;;;9.60;;
80567;SDS011;69922;45.656;25.586;2023-07-13T02:53:13;12.60;;;9.40;;
80567;SDS011;69922;45.656;25.586;2023-07-13T02:54:20;15.60;;;9.80;;
80567;SDS011;69922;45.656;25.586;2023-07-13T02:55:26;14.30;;;9.60;;
80567;SDS011;69922;45.656;25.586;2023-07-13T02:56:32;17.30;;;10.30;;
80567;SDS011;69922;45.656;25.586;2023-07-13T02:57:38;17.10;;;9.50;;
80567;SDS011;69922;45.656;25.586;2023-07-13T02:58:44;14.40;;;9.60;;
80567;SDS011;69922;45.656;25.586;2023-07-13T02:59:51;14.10;;;9.10;;
80567;SDS011;69922;45.656;25.586;2023-07-13T03:00:58;12.90;;;9.30;;
80567;SDS011;69922;45.656;25.586;2023-07-13T03:02:10;14.60;;;9.00;;
80567;SDS011;69922;45.656;25.586;2023-07-13T03:03:17;11.60;;;8.90;;
80567;SDS011;69922;45.656;25.586;2023-07-13T03:04:23;13.30;;;8.60;;
80567;SDS011;69922;45.656;25.586;2023-07-13T03:05:28;12.40;;;7.60;;
80567;SDS011;69922;45.656;25.586;2023-07-13T03:06:34;14.30;;;8.30;;
80567;SDS011;69922;45.656;25.586;2023-07-13T03:07:40;12.20;;;8.50;;
80567;SDS011;69922;45.656;25.586;2023-07-13T03:08:48;12.10;;;9.10;;
80567;SDS011;69922;45.656;25.586;2023-07-13T03:09:55;14.60;;;9.00;;
80567;SDS011;69922;45.656;25.586;2023-07-13T03:11:02;15.70;;;9.20;;
80567;SDS011;69922;45.656;25.586;2023-07-13T03:12:10;14.10;;;9.20;;
80567;SDS011;69922;45.656;25.586;2023-07-13T03:13:16;16.60;;;8.80;;
80567;SDS011;69922;45.656;25.586;2023-07-13T03:14:23;14.90;;;8.90;;
80567;SDS011;69922;45.656;25.586;2023-07-13T03:15:29;12.70;;;8.80;;
80567;SDS011;69922;45.656;25.586;2023-07-13T03:16:35;16.50;;;9.20;;
80567;SDS011;69922;45.656;25.586;2023-07-13T03:17:42;13.60;;;10.00;;
80567;SDS011;69922;45.656;25.586;2023-07-13T03:18:48;13.60;;;9.50;;
80567;SDS011;69922;45.656;25.586;2023-07-13T03:19:54;14.40;;;9.70;;
80567;SDS011;69922;45.656;25.586;2023-07-13T03:21:02;17.10;;;9.70;;
80567;SDS011;69922;45.656;25.586;2023-07-13T03:22:10;12.00;;;9.40;;
80567;SDS011;69922;45.656;25.586;2023-07-13T03:23:16;17.00;;;9.30;;
80567;SDS011;69922;45.656;25.586;2023-07-13T03:24:23;13.50;;;9.40;;
80567;SDS011;69922;45.656;25.586;2023-07-13T03:25:30;18.50;;;10.90;;
80567;SDS011;69922;45.656;25.586;2023-07-13T03:26:36;17.60;;;9.70;;
80567;SDS011;69922;45.656;25.586;2023-07-13T03:27:42;16.40;;;11.10;;
80567;SDS011;69922;45.656;25.586;2023-07-13T03:28:48;15.20;;;11.00;;
80567;SDS011;69922;45.656;25.586;2023-07-13T03:29:54;19.30;;;10.20;;
80567;SDS011;69922;45.656;25.586;2023-07-13T03:31:01;14.50;;;9.60;;
80567;SDS011;69922;45.656;25.586;2023-07-13T03:32:10;15.50;;;10.00;;
80567;SDS011;69922;45.656;25.586;2023-07-13T03:33:17;19.10;;;10.70;;
80567;SDS011;69922;45.656;25.586;2023-07-13T03:34:25;14.30;;;10.40;;
80567;SDS011;69922;45.656;25.586;2023-07-13T03:35:31;14.60;;;10.10;;
80567;SDS011;69922;45.656;25.586;2023-07-13T03:36:38;15.90;;;9.80;;
80567;SDS011;69922;45.656;25.586;2023-07-13T03:37:44;14.00;;;10.30;;
80567;SDS011;69922;45.656;25.586;2023-07-13T03:38:50;17.70;;;10.80;;
80567;SDS011;69922;45.656;25.586;2023-07-13T03:39:58;14.70;;;9.50;;
80567;SDS011;69922;45.656;25.586;2023-07-13T03:41:04;16.00;;;8.80;;
80567;SDS011;69922;45.656;25.586;2023-07-13T03:42:11;16.90;;;9.40;;
80567;SDS011;69922;45.656;25.586;2023-07-13T03:43:17;15.60;;;10.70;;
80567;SDS011;69922;45.656;25.586;2023-07-13T03:44:24;17.30;;;10.40;;
80567;SDS011;69922;45.656;25.586;2023-07-13T03:45:31;18.30;;;10.90;;
80567;SDS011;69922;45.656;25.586;2023-07-13T03:46:37;15.60;;;9.40;;
80567;SDS011;69922;45.656;25.586;2023-07-13T03:47:44;16.40;;;10.20;;
80567;SDS011;69922;45.656;25.586;2023-07-13T03:48:50;13.20;;;9.90;;
80567;SDS011;69922;45.656;25.586;2023-07-13T03:49:56;16.40;;;10.50;;
80567;SDS011;69922;45.656;25.586;2023-07-13T03:51:03;16.50;;;9.60;;
80567;SDS011;69922;45.656;25.586;2023-07-13T03:52:09;13.10;;;9.70;;
80567;SDS011;69922;45.656;25.586;2023-07-13T03:53:15;18.00;;;10.10;;
80567;SDS011;69922;45.656;25.586;2023-07-13T03:54:22;19.00;;;9.80;;
80567;SDS011;69922;45.656;25.586;2023-07-13T03:55:29;14.80;;;9.20;;
80567;SDS011;69922;45.656;25.586;2023-07-13T03:56:35;17.60;;;10.50;;
80567;SDS011;69922;45.656;25.586;2023-07-13T03:57:41;15.40;;;9.40;;
80567;SDS011;69922;45.656;25.586;2023-07-13T03:58:47;15.10;;;10.00;;
80567;SDS011;69922;45.656;25.586;2023-07-13T03:59:54;13.40;;;10.30;;
80567;SDS011;69922;45.656;25.586;2023-07-13T04:01:01;13.70;;;10.30;;
80567;SDS011;69922;45.656;25.586;2023-07-13T04:02:09;16.90;;;10.50;;
80567;SDS011;69922;45.656;25.586;2023-07-13T04:03:16;15.50;;;8.90;;
80567;SDS011;69922;45.656;25.586;2023-07-13T04:04:22;16.20;;;9.50;;
80567;SDS011;69922;45.656;25.586;2023-07-13T04:05:28;17.90;;;10.40;;
80567;SDS011;69922;45.656;25.586;2023-07-13T04:06:35;14.70;;;9.20;;
80567;SDS011;69922;45.656;25.586;2023-07-13T04:07:41;11.60;;;9.30;;
80567;SDS011;69922;45.656;25.586;2023-07-13T04:08:47;13.20;;;8.90;;
80567;SDS011;69922;45.656;25.586;2023-07-13T04:09:56;12.90;;;8.90;;
80567;SDS011;69922;45.656;25.586;2023-07-13T04:11:02;19.00;;;10.30;;
80567;SDS011;69922;45.656;25.586;2023-07-13T04:12:09;14.20;;;10.00;;
80567;SDS011;69922;45.656;25.586;2023-07-13T04:13:15;17.30;;;10.80;;
80567;SDS011;69922;45.656;25.586;2023-07-13T04:14:21;13.80;;;10.10;;
80567;SDS011;69922;45.656;25.586;2023-07-13T04:15:30;18.00;;;10.50;;
80567;SDS011;69922;45.656;25.586;2023-07-13T04:16:37;20.00;;;10.30;;
80567;SDS011;69922;45.656;25.586;2023-07-13T04:17:43;15.60;;;9.20;;
80567;SDS011;69922;45.656;25.586;2023-07-13T04:18:50;13.50;;;9.80;;
80567;SDS011;69922;45.656;25.586;2023-07-13T04:20:07;15.00;;;9.20;;
80567;SDS011;69922;45.656;25.586;2023-07-13T04:21:14;17.20;;;9.90;;
80567;SDS011;69922;45.656;25.586;2023-07-13T04:22:21;13.70;;;9.90;;
80567;SDS011;69922;45.656;25.586;2023-07-13T04:23:27;15.20;;;9.10;;
80567;SDS011;69922;45.656;25.586;2023-07-13T04:24:34;12.30;;;9.70;;
80567;SDS011;69922;45.656;25.586;2023-07-13T04:25:45;12.10;;;9.30;;
80567;SDS011;69922;45.656;25.586;2023-07-13T04:26:53;13.50;;;9.20;;
80567;SDS011;69922;45.656;25.586;2023-07-13T04:28:05;14.80;;;9.90;;
80567;SDS011;69922;45.656;25.586;2023-07-13T04:29:11;14.60;;;9.20;;
80567;SDS011;69922;45.656;25.586;2023-07-13T04:30:17;11.80;;;9.20;;
80567;SDS011;69922;45.656;25.586;2023-07-13T04:31:22;12.50;;;9.20;;
80567;SDS011;69922;45.656;25.586;2023-07-13T04:32:29;13.20;;;8.70;;
80567;SDS011;69922;45.656;25.586;2023-07-13T04:33:36;12.30;;;8.80;;
80567;SDS011;69922;45.656;25.586;2023-07-13T04:34:42;15.40;;;9.70;;
80567;SDS011;69922;45.656;25.586;2023-07-13T04:35:47;14.50;;;9.80;;
80567;SDS011;69922;45.656;25.586;2023-07-13T04:36:58;16.40;;;9.80;;
80567;SDS011;69922;45.656;25.586;2023-07-13T04:38:05;12.80;;;8.60;;
80567;SDS011;69922;45.656;25.586;2023-07-13T04:39:11;11.80;;;8.20;;
80567;SDS011;69922;45.656;25.586;2023-07-13T04:40:18;14.50;;;9.50;;
80567;SDS011;69922;45.656;25.586;2023-07-13T04:41:26;13.40;;;9.50;;
80567;SDS011;69922;45.656;25.586;2023-07-13T04:42:32;14.50;;;9.80;;
80567;SDS011;69922;45.656;25.586;2023-07-13T04:43:38;18.90;;;10.90;;
80567;SDS011;69922;45.656;25.586;2023-07-13T04:44:48;19.10;;;10.80;;
80567;SDS011;69922;45.656;25.586;2023-07-13T04:45:55;16.10;;;10.80;;
80567;SDS011;69922;45.656;25.586;2023-07-13T04:47:08;15.80;;;10.90;;
80567;SDS011;69922;45.656;25.586;2023-07-13T04:48:14;14.60;;;10.70;;
80567;SDS011;69922;45.656;25.586;2023-07-13T04:49:20;19.00;;;11.00;;
80567;SDS011;69922;45.656;25.586;2023-07-13T04:50:27;15.40;;;11.50;;
80567;SDS011;69922;45.656;25.586;2023-07-13T04:51:33;15.90;;;10.70;;
80567;SDS011;69922;45.656;25.586;2023-07-13T04:52:39;14.60;;;11.00;;
80567;SDS011;69922;45.656;25.586;2023-07-13T04:53:47;18.80;;;10.50;;
80567;SDS011;69922;45.656;25.586;2023-07-13T04:54:58;15.80;;;11.40;;
80567;SDS011;69922;45.656;25.586;2023-07-13T04:56:05;18.10;;;11.90;;
80567;SDS011;69922;45.656;25.586;2023-07-13T04:57:12;13.60;;;10.80;;
80567;SDS011;69922;45.656;25.586;2023-07-13T04:58:19;16.10;;;11.50;;
80567;SDS011;69922;45.656;25.586;2023-07-13T04:59:27;15.90;;;11.70;;
80567;SDS011;69922;45.656;25.586;2023-07-13T05:00:33;14.60;;;10.80;;
80567;SDS011;69922;45.656;25.586;2023-07-13T05:01:39;16.70;;;10.90;;
80567;SDS011;69922;45.656;25.586;2023-07-13T05:02:46;15.70;;;11.00;;
80567;SDS011;69922;45.656;25.586;2023-07-13T05:03:52;16.20;;;11.60;;
80567;SDS011;69922;45.656;25.586;2023-07-13T05:05:04;17.40;;;11.90;;
80567;SDS011;69922;45.656;25.586;2023-07-13T05:06:12;14.80;;;10.80;;
80567;SDS011;69922;45.656;25.586;2023-07-13T05:07:18;14.10;;;10.60;;
80567;SDS011;69922;45.656;25.586;2023-07-13T05:08:24;14.20;;;10.20;;
80567;SDS011;69922;45.656;25.586;2023-07-13T05:09:31;16.70;;;12.10;;
80567;SDS011;69922;45.656;25.586;2023-07-13T05:10:37;16.90;;;12.00;;
80567;SDS011;69922;45.656;25.586;2023-07-13T05:11:44;18.40;;;11.90;;
80567;SDS011;69922;45.656;25.586;2023-07-13T05:12:50;15.50;;;13.00;;
80567;SDS011;69922;45.656;25.586;2023-07-13T05:13:56;14.90;;;11.30;;
80567;SDS011;69922;45.656;25.586;2023-07-13T05:15:03;14.50;;;10.90;;
80567;SDS011;69922;45.656;25.586;2023-07-13T05:16:11;14.10;;;11.80;;
80567;SDS011;69922;45.656;25.586;2023-07-13T05:17:17;16.80;;;11.30;;
80567;SDS011;69922;45.656;25.586;2023-07-13T05:18:23;17.30;;;10.70;;
80567;SDS011;69922;45.656;25.586;2023-07-13T05:19:29;16.00;;;11.80;;
80567;SDS011;69922;45.656;25.586;2023-07-13T05:20:35;14.40;;;10.30;;
80567;SDS011;69922;45.656;25.586;2023-07-13T05:21:42;14.90;;;11.90;;
80567;SDS011;69922;45.656;25.586;2023-07-13T05:22:48;14.90;;;10.50;;
80567;SDS011;69922;45.656;25.586;2023-07-13T05:23:55;16.50;;;12.60;;
80567;SDS011;69922;45.656;25.586;2023-07-13T05:25:14;13.60;;;10.60;;
80567;SDS011;69922;45.656;25.586;2023-07-13T05:26:21;13.30;;;11.10;;
80567;SDS011;69922;45.656;25.586;2023-07-13T05:27:28;16.80;;;10.90;;
80567;SDS011;69922;45.656;25.586;2023-07-13T05:28:35;16.10;;;11.50;;
80567;SDS011;69922;45.656;25.586;2023-07-13T05:29:42;15.90;;;11.00;;
80567;SDS011;69922;45.656;25.586;2023-07-13T05:30:49;13.30;;;10.60;;
80567;SDS011;69922;45.656;25.586;2023-07-13T05:31:57;14.40;;;11.00;;
80567;SDS011;69922;45.656;25.586;2023-07-13T05:33:03;12.80;;;10.40;;
80567;SDS011;69922;45.656;25.586;2023-07-13T05:34:09;13.40;;;10.80;;
80567;SDS011;69922;45.656;25.586;2023-07-13T05:35:16;13.60;;;11.10;;
80567;SDS011;69922;45.656;25.586;2023-07-13T05:36:22;16.70;;;11.00;;
80567;SDS011;69922;45.656;25.586;2023-07-13T05:37:29;15.10;;;10.90;;
80567;SDS011;69922;45.656;25.586;2023-07-13T05:38:35;14.80;;;10.80;;
80567;SDS011;69922;45.656;25.586;2023-07-13T05:39:42;15.40;;;11.20;;
80567;SDS011;69922;45.656;25.586;2023-07-13T05:40:48;13.00;;;10.80;;
80567;SDS011;69922;45.656;25.586;2023-07-13T05:41:54;18.60;;;11.60;;
80567;SDS011;69922;45.656;25.586;2023-07-13T05:43:00;16.00;;;11.50;;
80567;SDS011;69922;45.656;25.586;2023-07-13T05:44:06;13.90;;;10.80;;
80567;SDS011;69922;45.656;25.586;2023-07-13T05:45:12;14.20;;;11.00;;
80567;SDS011;69922;45.656;25.586;2023-07-13T05:46:18;18.20;;;11.30;;
80567;SDS011;69922;45.656;25.586;2023-07-13T05:47:25;15.30;;;10.70;;
80567;SDS011;69922;45.656;25.586;2023-07-13T05:48:31;15.80;;;11.30;;
80567;SDS011;69922;45.656;25.586;2023-07-13T05:49:38;16.40;;;11.00;;
80567;SDS011;69922;45.656;25.586;2023-07-13T05:50:44;14.70;;;11.20;;
80567;SDS011;69922;45.656;25.586;2023-07-13T05:51:50;15.80;;;10.80;;
80567;SDS011;69922;45.656;25.586;2023-07-13T05:52:56;15.30;;;11.10;;
80567;SDS011;69922;45.656;25.586;2023-07-13T05:54:02;14.80;;;11.30;;
80567;SDS011;69922;45.656;25.586;2023-07-13T05:55:09;14.50;;;11.20;;
80567;SDS011;69922;45.656;25.586;2023-07-13T05:56:15;13.40;;;10.80;;
80567;SDS011;69922;45.656;25.586;2023-07-13T05:57:20;14.90;;;10.90;;
80567;SDS011;69922;45.656;25.586;2023-07-13T05:58:27;14.90;;;10.70;;
80567;SDS011;69922;45.656;25.586;2023-07-13T05:59:33;16.50;;;11.40;;
80567;SDS011;69922;45.656;25.586;2023-07-13T06:00:39;13.50;;;10.90;;
80567;SDS011;69922;45.656;25.586;2023-07-13T06:01:47;14.80;;;10.20;;
80567;SDS011;69922;45.656;25.586;2023-07-13T06:02:53;12.70;;;9.20;;
80567;SDS011;69922;45.656;25.586;2023-07-13T06:04:01;13.80;;;11.10;;
80567;SDS011;69922;45.656;25.586;2023-07-13T06:05:09;15.20;;;10.10;;
80567;SDS011;69922;45.656;25.586;2023-07-13T06:06:15;16.00;;;11.10;;
80567;SDS011;69922;45.656;25.586;2023-07-13T06:07:22;15.20;;;11.60;;
80567;SDS011;69922;45.656;25.586;2023-07-13T06:08:28;16.40;;;11.40;;
80567;SDS011;69922;45.656;25.586;2023-07-13T06:09:35;12.20;;;10.30;;
80567;SDS011;69922;45.656;25.586;2023-07-13T06:10:41;14.30;;;10.50;;
80567;SDS011;69922;45.656;25.586;2023-07-13T06:11:47;15.40;;;12.00;;
80567;SDS011;69922;45.656;25.586;2023-07-13T06:12:53;14.40;;;10.50;;
80567;SDS011;69922;45.656;25.586;2023-07-13T06:14:00;17.60;;;10.50;;
80567;SDS011;69922;45.656;25.586;2023-07-13T06:15:08;11.80;;;9.50;;
80567;SDS011;69922;45.656;25.586;2023-07-13T06:16:15;17.10;;;9.50;;
80567;SDS011;69922;45.656;25.586;2023-07-13T06:17:21;16.10;;;10.40;;
80567;SDS011;69922;45.656;25.586;2023-07-13T06:18:28;14.00;;;10.90;;
80567;SDS011;69922;45.656;25.586;2023-07-13T06:19:35;13.20;;;10.10;;
80567;SDS011;69922;45.656;25.586;2023-07-13T06:20:42;15.70;;;10.50;;
80567;SDS011;69922;45.656;25.586;2023-07-13T06:21:48;17.60;;;11.00;;
80567;SDS011;69922;45.656;25.586;2023-07-13T06:22:55;16.90;;;10.70;;
80567;SDS011;69922;45.656;25.586;2023-07-13T06:24:05;18.50;;;10.40;;
80567;SDS011;69922;45.656;25.586;2023-07-13T06:25:11;13.60;;;10.50;;
80567;SDS011;69922;45.656;25.586;2023-07-13T06:26:17;15.30;;;10.40;;
80567;SDS011;69922;45.656;25.586;2023-07-13T06:27:25;16.40;;;9.90;;
80567;SDS011;69922;45.656;25.586;2023-07-13T06:28:34;15.10;;;10.30;;
80567;SDS011;69922;45.656;25.586;2023-07-13T06:29:41;13.10;;;9.90;;
80567;SDS011;69922;45.656;25.586;2023-07-13T06:30:49;17.30;;;10.50;;
80567;SDS011;69922;45.656;25.586;2023-07-13T06:31:55;14.30;;;10.00;;
80567;SDS011;69922;45.656;25.586;2023-07-13T06:33:01;14.70;;;10.80;;